Terminal Aerodrome Forecast
Issued by NWS

Home | Current Version | Previous Version | Text Only | Print | Product List | Glossary On
Versions: 1 2 3 4 5 6 7 8 9 10 11 12 13 14 15 16 17
000
FTUS45 KSLC 260243 AAA
TAFENV
TAF AMD
KENV 260243Z 2603/2624 21015G25KT P6SM FEW120
     FM260700 26010KT P6SM SKC
     FM261400 19007KT P6SM SCT140
     FM262100 24012KT P6SM SCT080 BKN120=

USA.gov is the U.S. government's official web portal to all federal, state and local government web resources and services.